首页
METAR-TAF:

METAR-TAF

机场 :

墨爾本機場

墨尔本, 澳大利亚

纬度: 37-40-24S, 经度: 144-50-36E, 海拔: 132米

当前天气观测

该预报发布于11分钟前的00:00 UTC
风速13节,风向北转西北
温度 12°C
湿度 54%
气压 1013 hPa
能见度10公里或以上
少量云层高于2000英尺

METAR: YMML 170000Z 33013KT 9999 FEW020 12/03 Q1013

时间: 10:11 (00:11 UTC)

预报

该预报发布于49分钟前的23:22 UTC
预报有效从17日的 00点(UTC)到 18日的 06点(UTC)
风速15节,风向北转西北,有时为25节阵风
能见度10公里或以上
1500米以下无云,无积雨云
从 17日的 0700点(UTC)
风速13节,风向
能见度10公里或以上
1500米以下无云,无积雨云
从 17日的 1200点(UTC)
风速16节,风向,有时为28节阵风
能见度10公里或以上
少量云层高于4000英尺
从 17日的 1700点(UTC)
风速12节,风向西转西北
能见度10公里或以上
少量云层高于2500英尺
多云层高于3500英尺
小阵雨
从 18日的 0000点(UTC)
风速16节,风向西,有时为28节阵风
能見度: 5000
少量云层高于2500英尺
散云层高于3500英尺
散云层高于1500英尺
多云层高于2000英尺
小阵雨, 阵雨
几率 30%
在之间 IN和TE点(UTC)
风速20节,风向西,有时为32节阵风
能見度: 2000
散云层高于2000英尺
散云层高于3000英尺, 积雨云.
雷暴, 雨, 小冰雹或雪球

TAF: YMML 162322Z 1700/1806 33015G25KT CAVOK FM170700 35013KT CAVOK FM171200 36016G28KT 9999 FEW040 FM171700 30012KT 9999 -SHRA FEW025 BKN035 FM180000 27016G28KT 9999 -SHRA FEW025 SCT035 INTER 1717/1723 5000 SHRA SCT015 BKN020 PROB30 INTER 1801/1806 27020G32KT 2000 TSRAGS SCT020 SCT030CB

超过4000个机场的气象观测和天气预报(METAR&TAF报告)。

可查询的气象台以黄色和红色小点在地图上表示。

将鼠标移到小点上方,可查看气象台名称。

然后点击查看天气观测和预报。

如需切换地图:点击带黑十字的绿色按钮放大地图;点击带横线的绿色按钮缩小地图;或者点击绿色箭头查看邻近地区的地图。


METAR-TAF: